Time;durP1;ratioP1;P1;durP2;ratioP2;P2;SDS_P1;SDS_P2;PMS_P1;PMS_P2;Temp;Humidity;BMP_temperature;BMP_pressure;BME280_temperature;BME280_humidity;BME280_pressure;Samples;Min_cycle;Max_cycle;Signal;HPM_P1;HPM_P2
2022/03/04 00:00:45;;;;;;;9.43;2.95;;;;;;;3.19;100.00;101695.00;4948513;29;20059;-74
2022/03/04 00:03:11;;;;;;;5.43;2.08;;;;;;;3.24;100.00;101697.59;4935359;29;20117;-75
2022/03/04 00:05:40;;;;;;;6.82;2.63;;;;;;;3.28;100.00;101691.44;4952502;29;20066;-74
2022/03/04 00:08:06;;;;;;;8.55;2.67;;;;;;;3.28;100.00;101704.75;4936869;29;20102;-74
2022/03/04 00:10:33;;;;;;;8.75;2.80;;;;;;;3.33;100.00;101707.38;4952942;29;20099;-75
2022/03/04 00:12:58;;;;;;;5.38;2.53;;;;;;;3.39;99.85;101710.75;4931760;29;20039;-74
2022/03/04 00:15:24;;;;;;;3.85;2.17;;;;;;;3.39;100.00;101716.09;4949666;29;20450;-74
2022/03/04 00:17:51;;;;;;;7.97;2.72;;;;;;;3.33;100.00;101718.00;4949041;29;20027;-74
2022/03/04 00:20:17;;;;;;;5.35;2.50;;;;;;;3.35;99.46;101715.84;4937764;29;20058;-74
2022/03/04 00:22:44;;;;;;;6.32;3.00;;;;;;;3.36;100.00;101704.16;4934726;29;20069;-75
2022/03/04 00:25:09;;;;;;;6.45;2.08;;;;;;;3.36;99.93;101720.13;4934275;29;20121;-74
2022/03/04 00:27:35;;;;;;;5.65;2.10;;;;;;;3.35;100.00;101718.53;4951495;28;20114;-74
2022/03/04 00:30:03;;;;;;;5.97;2.05;;;;;;;3.40;99.68;101709.72;4930475;29;20039;-74
2022/03/04 00:32:28;;;;;;;4.30;1.88;;;;;;;3.32;99.46;101710.31;4932759;29;20035;-74
2022/03/04 00:34:54;;;;;;;3.88;2.42;;;;;;;3.32;99.92;101707.66;4929793;29;20138;-74
2022/03/04 00:37:19;;;;;;;6.22;2.58;;;;;;;3.34;100.00;101710.81;4928836;29;20467;-74
2022/03/04 00:39:45;;;;;;;6.13;2.92;;;;;;;3.22;100.00;101713.84;4934505;29;20039;-74
2022/03/04 00:42:11;;;;;;;8.15;3.58;;;;;;;3.24;100.00;101722.34;4952694;28;20036;-74
2022/03/04 00:44:36;;;;;;;6.18;2.85;;;;;;;3.25;100.00;101717.84;4936436;29;20057;-74
2022/03/04 00:47:02;;;;;;;5.35;3.15;;;;;;;3.31;100.00;101714.81;4956771;29;20821;-74
2022/03/04 00:49:27;;;;;;;3.17;2.22;;;;;;;3.31;100.00;101706.84;4955874;29;20039;-74
2022/03/04 00:51:53;;;;;;;7.25;2.85;;;;;;;3.33;100.00;101707.38;4937680;29;20035;-74
2022/03/04 00:54:18;;;;;;;8.00;2.42;;;;;;;3.35;100.00;101707.06;4938534;29;20512;-74
2022/03/04 00:56:44;;;;;;;5.00;2.65;;;;;;;3.32;100.00;101713.78;4938855;29;20043;-74
2022/03/04 00:59:09;;;;;;;5.82;2.78;;;;;;;3.31;100.00;101714.81;4956094;29;20050;-74
2022/03/04 01:01:35;;;;;;;8.50;2.83;;;;;;;3.29;100.00;101706.34;4956785;29;20057;-74
2022/03/04 01:04:00;;;;;;;5.13;2.20;;;;;;;3.28;100.00;101703.97;4922967;29;20039;-74
2022/03/04 01:06:25;;;;;;;10.98;3.03;;;;;;;3.29;100.00;101711.66;4954300;29;20035;-75
2022/03/04 01:08:51;;;;;;;7.15;2.25;;;;;;;3.31;100.00;101704.19;4954300;28;20496;-74
2022/03/04 01:11:16;;;;;;;5.95;2.83;;;;;;;3.27;100.00;101708.47;4953743;29;20161;-74
2022/03/04 01:13:42;;;;;;;8.98;2.22;;;;;;;3.29;100.00;101689.59;4953122;29;20031;-74
2022/03/04 01:16:07;;;;;;;6.05;2.53;;;;;;;3.31;100.00;101706.06;4954123;29;20122;-74
2022/03/04 01:18:33;;;;;;;7.97;2.63;;;;;;;3.33;100.00;101696.72;4944782;29;20511;-74
2022/03/04 01:20:59;;;;;;;7.05;3.10;;;;;;;3.35;100.00;101697.22;4935912;29;20039;-74
2022/03/04 01:23:24;;;;;;;9.55;2.85;;;;;;;3.30;100.00;101694.63;4955198;29;20055;-74
2022/03/04 01:25:52;;;;;;;6.95;2.33;;;;;;;3.35;100.00;101699.09;4938975;29;20069;-74
2022/03/04 01:28:21;;;;;;;9.57;3.05;;;;;;;3.37;100.00;101697.75;4937494;29;20042;-74
2022/03/04 01:30:47;;;;;;;9.43;2.42;;;;;;;3.38;100.00;101699.34;4923010;29;20492;-74
2022/03/04 01:33:13;;;;;;;11.10;2.70;;;;;;;3.37;100.00;101692.41;4956129;29;20043;-74
2022/03/04 01:35:38;;;;;;;8.23;3.05;;;;;;;3.37;100.00;101703.06;4936140;29;20075;-74
2022/03/04 01:38:04;;;;;;;4.97;2.75;;;;;;;3.32;100.00;101703.13;4937275;29;20036;-74
2022/03/04 01:40:30;;;;;;;8.50;2.25;;;;;;;3.31;100.00;101698.84;4956199;29;20042;-75
2022/03/04 01:42:55;;;;;;;8.85;2.72;;;;;;;3.32;100.00;101700.47;4921459;29;20027;-74
2022/03/04 01:45:22;;;;;;;8.20;2.45;;;;;;;3.30;100.00;101685.84;4949111;29;20037;-74
2022/03/04 01:47:48;;;;;;;6.45;2.78;;;;;;;3.26;100.00;101690.13;4922915;29;20208;-74
2022/03/04 01:50:13;;;;;;;5.25;2.15;;;;;;;3.23;100.00;101702.13;4938240;29;20039;-74
2022/03/04 01:52:39;;;;;;;5.55;2.47;;;;;;;3.25;100.00;101699.22;4954099;28;20039;-74
2022/03/04 01:55:06;;;;;;;8.98;2.25;;;;;;;3.27;100.00;101691.75;4931535;29;20048;-74
2022/03/04 01:57:32;;;;;;;5.30;2.38;;;;;;;3.26;100.00;101687.47;4919175;29;20099;-74
2022/03/04 01:59:57;;;;;;;9.93;2.72;;;;;;;3.30;100.00;101688.50;4954750;28;20039;-74
2022/03/04 02:02:23;;;;;;;8.23;2.63;;;;;;;3.31;100.00;101690.88;4938005;29;20431;-74
2022/03/04 02:04:50;;;;;;;4.55;1.65;;;;;;;3.31;100.00;101684.78;4932277;29;20035;-74
2022/03/04 02:07:15;;;;;;;5.65;2.55;;;;;;;3.28;100.00;101693.31;4954680;29;20050;-73
2022/03/04 02:09:41;;;;;;;5.35;2.28;;;;;;;3.23;100.00;101699.47;4954490;29;20031;-74
2022/03/04 02:12:06;;;;;;;7.05;2.40;;;;;;;3.26;100.00;101701.59;4955114;28;20027;-75
2022/03/04 02:14:32;;;;;;;5.75;2.10;;;;;;;3.27;100.00;101699.72;4942176;28;20508;-74
2022/03/04 02:16:57;;;;;;;8.23;2.75;;;;;;;3.33;100.00;101696.72;4927860;29;20488;-75
2022/03/04 02:19:23;;;;;;;8.27;2.03;;;;;;;3.29;100.00;101686.94;4954873;29;20127;-74
2022/03/04 02:21:57;;;;;;;7.93;2.40;;;;;;;3.26;100.00;101688.28;4954048;29;20043;-74
2022/03/04 02:24:26;;;;;;;4.57;2.47;;;;;;;3.24;100.00;101685.09;4955019;29;20043;-74
2022/03/04 02:26:54;;;;;;;7.47;2.67;;;;;;;3.22;100.00;101689.09;4954700;29;20038;-74
2022/03/04 02:29:19;;;;;;;4.80;2.08;;;;;;;3.24;100.00;101690.41;4953253;28;20043;-74
2022/03/04 02:31:46;;;;;;;2.90;1.45;;;;;;;3.23;100.00;101691.47;4955157;28;20035;-74
2022/03/04 02:34:11;;;;;;;7.85;3.03;;;;;;;3.14;100.00;101682.53;4932857;29;20436;-75
2022/03/04 02:36:37;;;;;;;5.47;1.95;;;;;;;3.08;100.00;101688.94;4921388;29;20098;-74
2022/03/04 02:39:04;;;;;;;6.22;2.53;;;;;;;3.08;100.00;101688.19;4920566;29;20035;-74
2022/03/04 02:41:31;;;;;;;4.30;2.10;;;;;;;3.12;100.00;101692.66;4937565;29;20170;-74
2022/03/04 02:43:56;;;;;;;3.67;2.10;;;;;;;3.12;100.00;101697.97;4936940;29;20154;-74
2022/03/04 02:46:22;;;;;;;3.90;1.90;;;;;;;3.16;100.00;101691.03;4937705;29;20443;-74
2022/03/04 02:48:48;;;;;;;7.15;2.80;;;;;;;3.16;100.00;101700.84;4954215;29;20035;-74
2022/03/04 02:51:14;;;;;;;4.40;1.55;;;;;;;3.18;100.00;101704.03;4936400;29;20512;-74
2022/03/04 02:53:39;;;;;;;6.35;2.78;;;;;;;3.20;100.00;101700.03;4953763;29;20059;-74
2022/03/04 02:56:05;;;;;;;4.78;2.17;;;;;;;3.20;100.00;101705.34;4936113;29;20031;-74
2022/03/04 02:58:30;;;;;;;5.32;2.47;;;;;;;3.23;100.00;101702.13;4937089;29;20123;-74
2022/03/04 03:00:56;;;;;;;7.38;2.20;;;;;;;3.20;100.00;101700.03;4953008;29;20512;-74
2022/03/04 03:03:21;;;;;;;4.22;2.15;;;;;;;3.15;100.00;101699.28;4954187;29;20484;-74
2022/03/04 03:05:47;;;;;;;6.70;2.17;;;;;;;3.19;100.00;101709.09;4936236;28;20055;-74
2022/03/04 03:08:13;;;;;;;4.80;2.75;;;;;;;3.21;100.00;101711.47;4953206;29;20082;-74
2022/03/04 03:10:39;;;;;;;6.68;2.03;;;;;;;3.16;100.00;101706.19;4954188;29;20050;-74
2022/03/04 03:13:05;;;;;;;5.43;2.17;;;;;;;3.15;100.00;101705.41;4936588;29;20027;-74
2022/03/04 03:15:30;;;;;;;3.65;1.23;;;;;;;3.17;100.00;101713.09;4935794;29;20050;-74
2022/03/04 03:17:56;;;;;;;4.20;1.88;;;;;;;3.15;100.00;101707.28;4934878;29;20042;-74
2022/03/04 03:20:22;;;;;;;9.05;2.30;;;;;;;3.14;100.00;101708.31;4927106;29;20102;-74
2022/03/04 03:22:48;;;;;;;9.85;2.38;;;;;;;3.16;100.00;101699.00;4952524;29;20041;-75
2022/03/04 03:25:14;;;;;;;7.57;2.70;;;;;;;3.14;100.00;101717.09;4953911;29;20482;-74
2022/03/04 03:27:39;;;;;;;3.10;1.92;;;;;;;3.14;100.00;101714.44;4935510;29;20063;-74
2022/03/04 03:30:07;;;;;;;8.90;1.70;;;;;;;3.15;100.00;101704.59;4952134;28;20097;-74
2022/03/04 03:32:33;;;;;;;4.65;2.25;;;;;;;3.12;100.00;101708.63;4951546;28;20416;-75
2022/03/04 03:34:59;;;;;;;7.00;2.15;;;;;;;3.06;100.00;101707.06;4948591;28;20074;-74
2022/03/04 03:37:24;;;;;;;4.85;1.85;;;;;;;3.02;100.00;101713.22;4952764;29;20089;-75
2022/03/04 03:39:49;;;;;;;5.78;1.73;;;;;;;3.03;100.00;101707.63;4995426;23;20125;-69
2022/03/04 03:42:15;;;;;;;3.50;1.50;;;;;;;3.03;100.00;101709.50;4972607;28;20038;-69
2022/03/04 03:44:40;;;;;;;4.60;1.67;;;;;;;3.04;100.00;101705.78;4970459;28;20047;-69
2022/03/04 03:47:06;;;;;;;9.18;2.28;;;;;;;3.03;100.00;101707.63;4969843;28;20035;-69
2022/03/04 03:49:31;;;;;;;5.97;2.28;;;;;;;3.05;100.00;101705.50;4970161;28;20054;-69
2022/03/04 03:51:57;;;;;;;4.75;2.30;;;;;;;3.03;100.00;101704.97;4952892;28;20357;-68
2022/03/04 03:54:23;;;;;;;4.55;1.95;;;;;;;3.06;100.00;101700.97;4953352;28;20436;-69
2022/03/04 03:56:48;;;;;;;8.10;2.15;;;;;;;3.04;100.00;101698.56;4957241;28;20043;-68
2022/03/04 03:59:14;;;;;;;6.95;2.08;;;;;;;3.02;100.00;101689.28;4965457;28;20042;-68
2022/03/04 04:01:39;;;;;;;3.95;1.73;;;;;;;3.05;100.00;101705.50;4964323;28;20045;-68
2022/03/04 04:04:08;;;;;;;5.78;1.77;;;;;;;3.06;100.00;101708.94;4951022;28;20042;-68
2022/03/04 04:06:34;;;;;;;4.80;1.90;;;;;;;3.00;100.00;101708.16;4969610;28;20065;-68
2022/03/04 04:09:01;;;;;;;6.18;1.85;;;;;;;2.97;100.00;101703.41;4969268;28;20117;-69
2022/03/04 04:11:26;;;;;;;4.43;2.40;;;;;;;2.98;100.00;101710.31;4970138;28;20138;-68
2022/03/04 04:13:51;;;;;;;13.80;2.20;;;;;;;2.99;100.00;101713.78;4963520;28;20050;-68
2022/03/04 04:16:17;;;;;;;6.68;2.10;;;;;;;3.02;100.00;101710.56;4954297;28;20039;-68
2022/03/04 04:18:42;;;;;;;3.95;2.03;;;;;;;3.00;100.00;101713.50;4950083;28;20035;-68
2022/03/04 04:21:07;;;;;;;5.00;2.05;;;;;;;3.01;100.00;101715.09;4971191;28;20089;-69
2022/03/04 04:23:34;;;;;;;7.00;2.05;;;;;;;2.99;100.00;101725.22;4962226;28;20019;-68
2022/03/04 04:25:59;;;;;;;4.03;1.58;;;;;;;3.01;100.00;101717.75;4963417;28;20054;-69
2022/03/04 04:28:25;;;;;;;5.30;1.90;;;;;;;2.99;100.00;101721.75;4955135;28;20035;-69
2022/03/04 04:30:51;;;;;;;3.90;1.67;;;;;;;2.85;100.00;101720.78;4967368;28;20117;-69
2022/03/04 04:33:17;;;;;;;4.97;2.13;;;;;;;2.86;100.00;101725.84;4961128;28;20519;-69
2022/03/04 04:35:43;;;;;;;8.23;1.63;;;;;;;2.86;100.00;101728.50;4953806;28;20031;-69
2022/03/04 04:38:09;;;;;;;3.28;1.63;;;;;;;2.86;100.00;101717.88;4956568;28;20071;-69
2022/03/04 04:40:34;;;;;;;6.10;2.20;;;;;;;2.86;100.00;101725.03;4959215;28;20050;-68
2022/03/04 04:43:00;;;;;;;6.18;1.92;;;;;;;2.85;100.00;101718.13;4958113;28;20032;-68
2022/03/04 04:45:26;;;;;;;6.38;1.60;;;;;;;2.79;100.00;101721.91;4953381;28;20026;-68
2022/03/04 04:47:51;;;;;;;4.88;1.60;;;;;;;2.79;100.00;101721.91;4954936;28;20427;-68
2022/03/04 04:50:17;;;;;;;9.52;1.98;;;;;;;2.80;100.00;101718.97;4959167;28;20380;-68
2022/03/04 04:52:42;;;;;;;7.03;1.95;;;;;;;2.85;100.00;101718.13;4952518;29;20118;-68
2022/03/04 04:55:08;;;;;;;4.40;1.67;;;;;;;2.83;100.00;101715.75;4958772;28;20058;-68
2022/03/04 04:57:34;;;;;;;2.38;1.27;;;;;;;2.80;100.00;101708.34;4965677;28;20034;-68
2022/03/04 04:59:59;;;;;;;3.97;2.00;;;;;;;2.75;100.00;101711.81;4987320;28;20050;-69
2022/03/04 05:02:25;;;;;;;9.90;1.92;;;;;;;2.78;100.00;101723.75;4959542;28;20054;-69
2022/03/04 05:04:50;;;;;;;7.20;2.45;;;;;;;2.80;100.00;101718.97;4957097;28;20039;-70
2022/03/04 05:07:15;;;;;;;6.03;2.03;;;;;;;2.79;100.00;101711.28;4959689;28;20444;-70
2022/03/04 05:09:41;;;;;;;8.90;2.45;;;;;;;2.79;100.00;101706.72;4961821;28;20138;-70
2022/03/04 05:12:07;;;;;;;6.03;1.63;;;;;;;2.81;100.00;101711.78;4969442;28;20126;-69
2022/03/04 05:14:32;;;;;;;7.65;2.25;;;;;;;2.79;100.00;101709.38;4957708;28;20039;-69
2022/03/04 05:16:58;;;;;;;4.25;1.40;;;;;;;2.75;100.00;101716.31;4951394;29;20814;-68
2022/03/04 05:19:23;;;;;;;3.60;1.48;;;;;;;2.56;100.00;101718.03;4963435;28;20097;-69
2022/03/04 05:21:48;;;;;;;4.75;2.47;;;;;;;2.57;100.00;101722.31;4964032;28;20037;-68
2022/03/04 05:24:14;;;;;;;3.42;1.67;;;;;;;2.62;100.00;101722.25;4958486;28;20503;-68
2022/03/04 05:26:41;;;;;;;3.58;1.48;;;;;;;2.63;100.00;101729.19;4966429;28;20041;-68
2022/03/04 05:29:09;;;;;;;4.22;1.70;;;;;;;2.63;100.00;101734.50;4963927;28;20042;-68
2022/03/04 05:31:36;;;;;;;1.15;1.05;;;;;;;2.60;100.00;101733.19;4961409;28;20381;-68
2022/03/04 05:34:02;;;;;;;2.78;1.00;;;;;;;2.63;100.00;101742.47;4952987;28;20062;-68
2022/03/04 05:36:27;;;;;;;4.25;2.28;;;;;;;2.61;100.00;101733.97;4961106;28;20061;-68
2022/03/04 05:38:53;;;;;;;3.00;1.67;;;;;;;2.59;100.00;101736.88;4968173;28;20542;-68
2022/03/04 05:41:19;;;;;;;7.20;1.65;;;;;;;2.55;100.00;101737.72;4939403;28;20039;-68
2022/03/04 05:43:46;;;;;;;2.60;1.58;;;;;;;2.53;100.00;101731.91;4968932;28;20038;-69
2022/03/04 05:46:13;;;;;;;2.72;1.60;;;;;;;2.56;100.00;101737.44;4960718;28;20031;-68
2022/03/04 05:48:39;;;;;;;4.45;1.67;;;;;;;2.51;100.00;101732.19;4970796;28;20038;-68
2022/03/04 05:51:05;;;;;;;3.45;1.83;;;;;;;2.52;100.00;101739.06;4966761;28;20027;-68
2022/03/04 05:53:32;;;;;;;4.30;1.52;;;;;;;2.49;100.00;101726.34;4970554;28;20549;-68
2022/03/04 05:55:59;;;;;;;3.38;1.50;;;;;;;2.47;100.00;101735.66;4970694;28;20027;-68
2022/03/04 05:58:25;;;;;;;4.93;1.88;;;;;;;2.44;100.00;101725.56;4963922;28;20038;-68
2022/03/04 06:00:50;;;;;;;3.50;1.27;;;;;;;2.41;100.00;101728.75;4962554;28;20034;-68
2022/03/04 06:03:16;;;;;;;3.95;1.85;;;;;;;2.38;100.00;101730.09;4967473;28;20034;-68
2022/03/04 06:05:42;;;;;;;3.90;1.63;;;;;;;2.37;100.00;101725.84;4957137;28;20079;-68
2022/03/04 06:08:07;;;;;;;4.75;1.40;;;;;;;2.40;100.00;101733.28;4944597;28;20039;-68
2022/03/04 06:10:32;;;;;;;5.72;1.52;;;;;;;2.44;100.00;101741.53;4955351;28;20396;-69
2022/03/04 06:12:58;;;;;;;4.43;1.40;;;;;;;2.45;100.00;101732.47;4959752;28;20023;-68
2022/03/04 06:15:23;;;;;;;4.20;1.13;;;;;;;2.35;100.00;101738.63;4969133;28;20039;-68
2022/03/04 06:17:50;;;;;;;3.47;1.45;;;;;;;2.35;100.00;101748.44;4961927;28;20031;-68
2022/03/04 06:20:16;;;;;;;1.65;1.25;;;;;;;2.40;100.00;101751.09;4944292;28;20039;-68
2022/03/04 06:22:43;;;;;;;5.93;1.50;;;;;;;2.41;100.00;101748.16;4960553;28;20075;-68
2022/03/04 06:25:10;;;;;;;2.53;1.25;;;;;;;2.44;100.00;101757.47;4964200;28;20046;-68
2022/03/04 06:27:36;;;;;;;2.60;1.20;;;;;;;2.46;100.00;101763.28;4955312;28;20530;-69
2022/03/04 06:30:03;;;;;;;3.03;1.30;;;;;;;2.42;100.00;101754.28;4961422;28;20476;-68
2022/03/04 06:32:29;;;;;;;5.72;1.30;;;;;;;2.38;100.00;101761.97;4956872;28;20153;-69
2022/03/04 06:34:54;;;;;;;2.67;1.42;;;;;;;2.41;100.00;101768.63;4961147;28;20146;-69
2022/03/04 06:37:19;;;;;;;4.03;1.35;;;;;;;2.46;100.00;101771.25;4966157;28;20027;-69
2022/03/04 06:39:45;;;;;;;2.80;1.20;;;;;;;2.51;100.00;101763.25;4957474;28;20495;-68
2022/03/04 06:42:10;;;;;;;2.58;1.50;;;;;;;2.43;100.00;101771.81;4962891;28;20023;-69
2022/03/04 06:44:36;;;;;;;4.55;1.95;;;;;;;2.45;100.00;101772.31;4964745;28;20180;-68
2022/03/04 06:47:01;;;;;;;3.25;1.70;;;;;;;2.47;100.00;101759.56;4952377;28;20062;-68
2022/03/04 06:49:27;;;;;;;4.50;1.63;;;;;;;2.50;100.00;101769.63;4940650;28;20043;-69
2022/03/04 06:51:52;;;;;;;2.30;1.13;;;;;;;2.51;100.00;101771.25;4964464;28;21625;-69
2022/03/04 06:54:18;;;;;;;3.30;1.55;;;;;;;2.49;100.00;101768.06;4947565;28;20038;-69
2022/03/04 06:56:44;;;;;;;3.15;1.77;;;;;;;2.48;100.00;101779.75;4970453;28;20033;-69
2022/03/04 06:59:09;;;;;;;3.65;1.63;;;;;;;2.47;100.00;101792.25;4969344;28;20554;-69
2022/03/04 07:01:34;;;;;;;3.22;1.30;;;;;;;2.43;100.00;101790.41;4970829;28;20070;-69
2022/03/04 07:04:00;;;;;;;3.83;1.42;;;;;;;2.46;100.00;101784.53;4966892;28;20066;-69
2022/03/04 07:06:25;;;;;;;0.90;0.70;;;;;;;2.55;100.00;101797.00;4965843;28;20042;-69
2022/03/04 07:08:51;;;;;;;2.83;1.75;;;;;;;2.55;100.00;101786.38;4948867;28;20038;-69
2022/03/04 07:11:16;;;;;;;2.78;1.35;;;;;;;2.56;100.00;101781.84;4964786;28;20070;-68
2022/03/04 07:13:42;;;;;;;2.15;1.50;;;;;;;2.56;100.00;101787.97;4969767;28;20039;-68
2022/03/04 07:16:07;;;;;;;2.72;1.55;;;;;;;2.58;100.00;101782.34;4969018;28;20419;-69
2022/03/04 07:18:33;;;;;;;1.33;0.93;;;;;;;2.62;100.00;101788.72;4969901;28;20034;-68
2022/03/04 07:21:00;;;;;;;3.13;2.08;;;;;;;2.64;100.00;101791.91;4936000;28;20410;-69
2022/03/04 07:23:26;;;;;;;3.70;1.23;;;;;;;2.62;100.00;101786.88;4970601;28;20110;-69
2022/03/04 07:25:52;;;;;;;1.83;0.90;;;;;;;2.65;100.00;101783.66;4969648;28;20549;-69
2022/03/04 07:28:17;;;;;;;5.47;1.55;;;;;;;2.66;100.00;101784.44;4968561;28;20031;-69
2022/03/04 07:30:43;;;;;;;2.17;1.45;;;;;;;2.69;100.00;101790.00;4953349;28;20047;-71
2022/03/04 07:33:08;;;;;;;3.85;1.55;;;;;;;2.67;100.00;101786.06;4969685;28;20451;-71
2022/03/04 07:35:34;;;;;;;3.97;1.90;;;;;;;2.68;100.00;101800.94;4966134;28;20061;-71
2022/03/04 07:37:59;;;;;;;6.50;1.30;;;;;;;2.68;100.00;101779.66;4966392;28;20077;-68
2022/03/04 07:40:25;;;;;;;3.50;1.42;;;;;;;2.78;99.84;101784.94;4952909;28;20035;-68
2022/03/04 07:42:51;;;;;;;3.50;1.52;;;;;;;2.77;100.00;101788.63;4955098;28;20118;-68
2022/03/04 07:45:16;;;;;;;3.38;1.50;;;;;;;2.75;100.00;101801.41;4965137;28;20104;-68
2022/03/04 07:47:43;;;;;;;3.97;1.85;;;;;;;2.80;100.00;101805.91;4952055;28;20045;-68
2022/03/04 07:50:11;;;;;;;2.70;1.20;;;;;;;2.79;100.00;101802.47;4954533;28;20034;-69
2022/03/04 07:52:36;;;;;;;3.03;0.95;;;;;;;2.84;100.00;101815.75;4969123;28;20105;-68
2022/03/04 07:55:10;;;;;;;4.13;1.73;;;;;;;2.89;100.00;101813.03;4948381;28;20058;-69
2022/03/04 07:57:36;;;;;;;2.28;1.33;;;;;;;2.85;100.00;101814.66;4969486;28;20384;-69
2022/03/04 08:00:05;;;;;;;3.35;1.50;;;;;;;2.89;100.00;101810.38;4951830;28;20042;-69
2022/03/04 08:02:38;;;;;;;4.07;1.33;;;;;;;2.89;100.00;101818.38;4968721;28;20038;-69
2022/03/04 08:05:04;;;;;;;2.67;1.20;;;;;;;2.84;100.00;101826.38;4964594;28;20097;-68
2022/03/04 08:07:29;;;;;;;2.53;1.55;;;;;;;2.93;100.00;101823.94;4974567;28;20043;-69
2022/03/04 08:09:55;;;;;;;3.60;1.52;;;;;;;2.95;100.00;101825.25;4965523;28;20122;-69
2022/03/04 08:12:22;;;;;;;3.38;0.75;;;;;;;2.99;100.00;101828.94;4963637;28;20039;-68
2022/03/04 08:14:48;;;;;;;1.70;1.40;;;;;;;3.08;100.00;101829.97;4962516;28;20074;-68
2022/03/04 08:17:13;;;;;;;2.20;1.20;;;;;;;3.12;100.00;101832.84;4968746;28;20058;-68
2022/03/04 08:19:39;;;;;;;2.10;1.48;;;;;;;3.16;100.00;101834.69;4967527;28;20027;-69
2022/03/04 08:22:06;;;;;;;3.00;0.90;;;;;;;3.21;100.00;101836.53;4970426;28;20077;-69
2022/03/04 08:24:32;;;;;;;2.00;0.93;;;;;;;3.19;100.00;101839.50;4934845;28;20041;-69
2022/03/04 08:26:57;;;;;;;2.15;1.40;;;;;;;3.30;100.00;101832.22;4970502;28;20483;-68
2022/03/04 08:29:23;;;;;;;1.83;1.00;;;;;;;3.40;100.00;101846.25;4949168;28;20046;-68
2022/03/04 08:31:49;;;;;;;8.00;1.83;;;;;;;3.35;99.65;101843.63;4970017;28;20038;-68
2022/03/04 08:34:15;;;;;;;0.93;0.77;;;;;;;3.35;99.88;101840.16;4968831;28;20049;-69
2022/03/04 08:36:40;;;;;;;4.60;1.90;;;;;;;3.26;100.00;101847.94;4960786;28;20042;-68
2022/03/04 08:39:06;;;;;;;4.07;1.73;;;;;;;3.32;100.00;101848.69;4965271;28;20695;-68
2022/03/04 08:41:32;;;;;;;6.70;1.48;;;;;;;3.33;100.00;101844.97;4964923;28;20034;-68
2022/03/04 08:43:58;;;;;;;4.18;1.67;;;;;;;3.35;100.00;101850.81;4961837;28;20057;-69
2022/03/04 08:46:24;;;;;;;2.45;1.48;;;;;;;3.37;100.00;101848.66;4966656;28;20061;-69
2022/03/04 08:48:49;;;;;;;2.58;1.55;;;;;;;3.41;100.00;101858.50;4965586;28;20047;-68
2022/03/04 08:51:15;;;;;;;4.78;1.75;;;;;;;3.48;100.00;101853.63;4965065;28;20407;-68
2022/03/04 08:53:40;;;;;;;3.13;1.40;;;;;;;3.56;100.00;101854.94;4969500;28;20109;-69
2022/03/04 08:56:06;;;;;;;2.17;1.48;;;;;;;3.55;100.00;101854.13;4968567;28;20042;-68
2022/03/04 08:58:31;;;;;;;2.80;1.30;;;;;;;3.61;100.00;101866.34;4970804;28;20117;-68
2022/03/04 09:00:57;;;;;;;3.83;1.83;;;;;;;3.62;100.00;101864.44;4957671;28;20512;-69
2022/03/04 09:03:22;;;;;;;2.25;1.17;;;;;;;3.75;100.00;101871.81;4969385;28;20027;-68
2022/03/04 09:05:48;;;;;;;3.33;1.60;;;;;;;3.68;100.00;101872.13;4971710;28;20069;-69
2022/03/04 09:08:13;;;;;;;3.47;1.00;;;;;;;3.65;100.00;101887.88;4954969;28;20067;-69
2022/03/04 09:10:39;;;;;;;2.95;1.02;;;;;;;3.76;100.00;101880.59;4969821;28;20263;-69
2022/03/04 09:13:04;;;;;;;2.67;0.90;;;;;;;3.80;100.00;101884.28;4966029;28;20057;-69
2022/03/04 09:15:30;;;;;;;2.95;1.42;;;;;;;3.79;100.00;101882.72;4969921;28;20055;-69
2022/03/04 09:17:56;;;;;;;0.63;0.63;;;;;;;3.84;100.00;101890.66;4970338;28;20049;-68
2022/03/04 09:20:21;;;;;;;1.85;0.93;;;;;;;3.88;100.00;101889.03;4955934;28;20035;-68
2022/03/04 09:22:47;;;;;;;1.42;1.10;;;;;;;3.83;100.00;101887.22;4972922;28;20066;-68
2022/03/04 09:25:13;;;;;;;2.47;1.13;;;;;;;3.84;100.00;101887.97;4950765;28;20042;-69
2022/03/04 09:27:41;;;;;;;0.70;0.70;;;;;;;3.90;100.00;101897.53;4970193;28;20039;-69
2022/03/04 09:30:08;;;;;;;1.10;0.60;;;;;;;3.98;100.00;101894.28;4954907;28;20062;-69
2022/03/04 09:32:34;;;;;;;2.17;0.93;;;;;;;4.07;100.00;101895.25;4970605;28;20030;-69
2022/03/04 09:34:59;;;;;;;2.58;1.27;;;;;;;4.13;99.08;101902.13;4965412;28;20045;-69
2022/03/04 09:37:25;;;;;;;2.38;1.35;;;;;;;4.14;99.30;101911.72;4953844;28;20031;-68
2022/03/04 09:39:50;;;;;;;2.10;1.05;;;;;;;4.11;99.56;101898.94;4952969;28;20054;-69
2022/03/04 09:42:17;;;;;;;2.83;1.40;;;;;;;4.16;98.95;101894.34;4972752;28;20066;-68
2022/03/04 09:44:42;;;;;;;4.35;1.13;;;;;;;4.11;98.56;101894.41;4968737;28;20093;-68
2022/03/04 09:47:09;;;;;;;2.63;1.30;;;;;;;4.09;98.62;101896.56;4970220;28;20143;-69
2022/03/04 09:49:36;;;;;;;1.23;1.10;;;;;;;4.12;97.60;101893.31;4971067;28;20044;-68
2022/03/04 09:52:06;;;;;;;2.42;1.20;;;;;;;4.01;98.52;101899.03;4946070;28;20109;-69
2022/03/04 09:54:32;;;;;;;1.52;1.15;;;;;;;4.04;98.74;101912.59;4970060;28;20118;-68
2022/03/04 09:56:58;;;;;;;2.63;1.17;;;;;;;4.08;99.22;101900.31;4969735;28;20479;-69
2022/03/04 09:59:25;;;;;;;1.83;1.02;;;;;;;4.18;98.44;101910.88;4963320;28;20030;-68
2022/03/04 10:01:51;;;;;;;1.67;1.20;;;;;;;4.27;98.75;101911.06;4954252;28;20054;-69
2022/03/04 10:04:17;;;;;;;2.45;1.38;;;;;;;4.25;98.22;101919.34;4963609;28;20597;-68
2022/03/04 10:06:48;;;;;;;0.95;0.73;;;;;;;4.32;98.64;101913.66;4947297;28;20030;-68
2022/03/04 10:09:34;;;;;;;3.50;1.30;;;;;;;4.35;98.41;101913.13;4964545;28;20031;-68
2022/03/04 10:12:04;;;;;;;2.33;1.08;;;;;;;4.40;98.32;101915.72;4964713;28;20054;-68
2022/03/04 10:14:31;;;;;;;4.03;1.67;;;;;;;4.41;98.42;101918.09;4963590;28;20440;-68
2022/03/04 10:16:57;;;;;;;3.33;1.63;;;;;;;4.41;99.15;101915.44;4964124;28;20038;-68
2022/03/04 10:19:23;;;;;;;4.85;1.30;;;;;;;4.44;98.00;101920.22;4961805;28;20043;-68
2022/03/04 10:21:52;;;;;;;2.15;1.42;;;;;;;4.50;98.80;101907.63;4956171;28;20480;-68
2022/03/04 10:24:29;;;;;;;5.28;1.23;;;;;;;4.53;98.82;101909.72;4961768;28;20054;-69
2022/03/04 10:27:09;;;;;;;3.25;1.20;;;;;;;4.55;98.53;101916.38;4955801;28;20077;-68
2022/03/04 10:29:40;;;;;;;3.03;1.23;;;;;;;4.56;98.16;101907.31;4967822;28;20038;-69
2022/03/04 10:32:13;;;;;;;;;;;;;;;4.58;98.01;101902.47;4951189;28;20252;-69
2022/03/04 10:34:58;;;;;;;3.03;1.20;;;;;;;4.59;98.17;101900.59;4961210;28;19933;-68
2022/03/04 10:37:54;;;;;;;2.80;0.80;;;;;;;4.67;98.19;101912.50;4958605;28;20051;-68
2022/03/04 10:40:25;;;;;;;2.90;1.77;;;;;;;4.74;97.88;101894.31;4961203;28;20042;-71
2022/03/04 10:42:59;;;;;;;2.78;1.05;;;;;;;4.76;97.23;101910.81;4959535;28;20061;-69
2022/03/04 10:45:29;;;;;;;3.10;1.35;;;;;;;4.81;97.74;101897.41;4961287;28;20118;-68
2022/03/04 10:47:55;;;;;;;4.40;1.23;;;;;;;4.84;96.99;101896.84;4959114;28;20091;-70
2022/03/04 10:50:26;;;;;;;3.83;1.13;;;;;;;5.00;96.56;101901.72;4965442;28;20485;-69
2022/03/04 10:52:52;;;;;;;3.40;2.08;;;;;;;5.00;96.06;101896.38;4969067;28;20074;-68
2022/03/04 10:55:36;;;;;;;2.67;1.38;;;;;;;5.09;95.87;101893.88;4953175;28;20042;-68
2022/03/04 10:58:27;;;;;;;3.83;1.60;;;;;;;5.21;95.54;101897.69;4967331;28;20077;-69
2022/03/04 11:00:56;;;;;;;2.17;0.70;;;;;;;5.30;94.62;101895.97;4959297;28;20054;-68
2022/03/04 11:03:30;;;;;;;1.10;0.95;;;;;;;5.30;94.33;101895.19;4967174;28;20049;-69
2022/03/04 11:06:02;;;;;;;2.42;1.10;;;;;;;5.37;93.61;101896.41;4965359;28;20039;-69
2022/03/04 11:08:28;;;;;;;5.75;1.45;;;;;;;5.34;93.31;101902.31;4950443;28;20050;-69
2022/03/04 11:10:55;;;;;;;1.17;0.93;;;;;;;5.31;93.32;101894.09;4958533;28;20046;-69
2022/03/04 11:13:22;;;;;;;2.65;1.08;;;;;;;5.21;93.46;101892.34;4932095;28;20023;-69
2022/03/04 11:15:49;;;;;;;2.33;1.30;;;;;;;5.27;93.58;101885.88;4966098;28;20039;-69
2022/03/04 11:18:17;;;;;;;2.35;1.25;;;;;;;5.28;93.16;101881.31;4949768;28;20043;-69
2022/03/04 11:20:45;;;;;;;1.38;1.10;;;;;;;5.44;92.79;101883.47;4950696;28;20046;-69
2022/03/04 11:23:18;;;;;;;3.28;1.40;;;;;;;5.57;92.65;101878.50;4963546;28;20037;-69